메인 페이지
METAR-TAF:

METAR-TAF

공항 :

우아리 부메디엔 공항

알제, 알제리

위도: 36-43N, 경도: 003-15E, 고도: 25m

현재 날씨관측

예보는 34분 전, 02:30시(UTC)에 발표되었습니다.
5kt남서풍과 서북서풍을 오가는
온도 24°C
습도 89%
기압 1016 hPa
시정 10km 이상
고도 2600ft 상공 구름 조금
고도 20000ft 상공 구름 보통

METAR: DAAG 160230Z 26005KT 230V290 9999 FEW026 SCT200 24/22 Q1016

시각: 04:04 (03:04 UTC)

예보

예보는 4 시간 4분 전, 23:00시(UTC)에 발표되었습니다.
예보 대상 시간: 16일 00시부터 16일 24시까지 (UTC)
여러 방향의 바람 2kt
시정 10km 이상
고도 2300ft 상공 구름 조금
고도 10000ft 상공 구름 보통
확률 30% :
일시적
16일 00시부터 16일 03시까지 (UTC)
고도 2600ft 상공 구름 조금, 적란운.
확률 40% :
일시적
16일 03시부터 16일 08시까지 (UTC)
시정: 3000m
고도 1300ft 상공 구름 많음
박무
전환 중
16일 09시부터 19일 12시까지 (UTC)
북북서10kt
확률 30% :
일시적
16일 18시부터 16일 21시까지 (UTC)
여러 방향의 바람 15kt, 순간 최대 풍속 25kt
시정: 5000m
고도 2600ft 상공 구름 조금, 적란운.
뇌우, 약한비

TAF: DAAG 152300Z 1600/1624 VRB02KT 9999 FEW023 SCT100 PROB30 TEMPO 1600/1603 FEW026CB PROB40 TEMPO 1603/1608 3000 BR BKN013 BECMG 1609/1912 34010KT PROB30 TEMPO 1618/1621 VRB15G25KT 5000 -TSRA FEW026CB

4,000개 이상의 공항 관측 자료 및 예보 (METAR 및 TAF 보고).

지도상에서 검색 가능한 기상관측소가 노란 점과 빨간 점으로 표시되어 있습니다.

기상관측소 명을 보려면 표시 위로 마우스를 이동하세요.

날씨 관측과 예보를 보려면 클릭하세요.

지도 변경 : 확대하려면 엑스 표시가 있는 녹색 버튼, 축소하려면 빼기 표시가 있는 녹색 버튼, 다음 페이지의 지도를 보려면 녹색 화살표를 클릭하세요.


METAR-TAF: